createdAt,value
2022-09-05T00:00:31.222Z,15.84
2022-09-05T00:03:08.614Z,15.77
2022-09-05T00:06:03.036Z,15.82
2022-09-05T00:08:46.479Z,15.80
2022-09-05T00:11:41.853Z,15.76
2022-09-05T00:15:16.855Z,15.85
2022-09-05T00:17:48.755Z,15.86
2022-09-05T00:24:26.948Z,15.88
2022-09-05T00:24:27.279Z,15.77
2022-09-05T00:26:29.781Z,15.90
2022-09-05T00:29:09.476Z,15.89
2022-09-05T00:31:54.275Z,15.97
2022-09-05T00:34:47.971Z,15.98
2022-09-05T00:37:29.303Z,15.98
2022-09-05T00:40:18.468Z,15.94
2022-09-05T00:45:34.430Z,16.06
2022-09-05T00:48:11.185Z,16.01
2022-09-05T00:50:53.469Z,16.06
2022-09-05T00:53:25.621Z,16.04
2022-09-05T00:56:01.223Z,15.97
2022-09-05T00:58:44.861Z,16.02
2022-09-05T01:01:26.563Z,16.06
2022-09-05T01:04:18.214Z,16.06
2022-09-05T01:07:03.773Z,16.04
2022-09-05T01:09:43.074Z,16.02
2022-09-05T01:12:31.876Z,16.02
2022-09-05T01:15:11.561Z,15.98
2022-09-05T01:17:50.989Z,15.96
2022-09-05T01:20:43.650Z,15.94
2022-09-05T01:23:47.241Z,15.92
2022-09-05T01:26:47.295Z,15.88
2022-09-05T01:29:22.776Z,15.89
2022-09-05T01:32:08.930Z,15.89
2022-09-05T01:34:54.330Z,15.83
2022-09-05T01:37:33.560Z,15.74
2022-09-05T01:40:16.489Z,15.78
2022-09-05T01:42:56.083Z,15.77
2022-09-05T01:45:39.240Z,15.74
2022-09-05T01:48:12.643Z,15.75
2022-09-05T01:50:48.124Z,15.65
2022-09-05T01:53:25.262Z,15.63
2022-09-05T01:56:33.086Z,15.67
2022-09-05T01:59:11.192Z,15.64
2022-09-05T02:01:57.576Z,15.64
2022-09-05T02:04:47.432Z,15.54
2022-09-05T02:07:31.334Z,15.53
2022-09-05T02:10:29.554Z,15.45
2022-09-05T02:13:05.441Z,15.40
2022-09-05T02:15:55.437Z,15.29
2022-09-05T02:18:37.883Z,15.29
2022-09-05T02:21:11.965Z,15.21
2022-09-05T02:23:45.858Z,15.27
2022-09-05T02:26:19.035Z,15.22
2022-09-05T02:28:52.810Z,15.20
2022-09-05T02:31:24.722Z,15.19
2022-09-05T02:34:01.912Z,15.19
2022-09-05T02:36:36.946Z,15.16
2022-09-05T02:41:58.779Z,15.14
2022-09-05T02:45:09.110Z,15.13
2022-09-05T02:45:25.666Z,15.10
2022-09-05T02:48:14.852Z,15.11
2022-09-05T02:57:27.556Z,15.04
2022-09-05T02:57:34.885Z,15.04
2022-09-05T02:57:45.656Z,15.01
2022-09-05T02:59:48.141Z,14.87
2022-09-05T03:02:27.257Z,14.96
2022-09-05T03:05:04.538Z,14.92
2022-09-05T03:07:54.819Z,14.86
2022-09-05T03:10:56.230Z,14.82
2022-09-05T03:13:58.778Z,14.80
2022-09-05T03:17:09.947Z,14.72
2022-09-05T03:20:38.146Z,14.66
2022-09-05T03:23:38.501Z,14.60
2022-09-05T03:26:35.738Z,14.55
2022-09-05T03:29:31.111Z,14.54
2022-09-05T03:32:45.241Z,14.50
2022-09-05T03:35:47.514Z,14.45
2022-09-05T03:38:59.943Z,14.46
2022-09-05T03:41:41.032Z,14.43
2022-09-05T03:44:31.244Z,14.36
2022-09-05T03:47:25.281Z,14.33
2022-09-05T03:56:59.810Z,14.30
2022-09-05T03:57:19.160Z,14.28
2022-09-05T03:57:19.763Z,14.31
2022-09-05T03:59:51.938Z,14.32
2022-09-05T04:08:10.153Z,14.30
2022-09-05T04:08:17.042Z,14.27
2022-09-05T04:08:41.058Z,14.26
2022-09-05T04:11:01.212Z,14.28
2022-09-05T04:13:33.546Z,14.21
2022-09-05T04:16:09.565Z,14.26
2022-09-05T04:18:40.621Z,14.26
2022-09-05T04:21:13.282Z,14.25
2022-09-05T04:24:01.834Z,14.19
2022-09-05T04:26:53.909Z,14.23
2022-09-05T04:29:34.584Z,14.22
2022-09-05T04:32:17.999Z,14.23
2022-09-05T04:35:07.655Z,14.22
2022-09-05T04:37:48.085Z,14.22
2022-09-05T04:40:42.086Z,14.23
2022-09-05T04:43:16.201Z,14.02
2022-09-05T04:45:49.718Z,14.08
2022-09-05T04:48:22.239Z,14.14
2022-09-05T04:51:04.099Z,14.09
2022-09-05T04:53:47.863Z,13.95
2022-09-05T04:56:19.062Z,14.11
2022-09-05T05:01:24.333Z,14.00
2022-09-05T05:05:59.996Z,14.11
2022-09-05T05:06:13.501Z,13.91
2022-09-05T05:07:23.936Z,14.00
2022-09-05T05:10:19.486Z,14.13
2022-09-05T05:17:57.276Z,14.12
2022-09-05T05:18:08.952Z,13.99
2022-09-05T05:18:56.452Z,13.90
2022-09-05T05:21:31.187Z,14.21
2022-09-05T05:24:06.961Z,14.19
2022-09-05T05:26:42.715Z,14.14
2022-09-05T05:29:19.555Z,14.21
2022-09-05T05:31:50.200Z,14.34
2022-09-05T05:34:24.727Z,14.42
2022-09-05T05:37:00.529Z,14.46
2022-09-05T05:39:29.406Z,14.28
2022-09-05T05:41:57.699Z,14.53
2022-09-05T05:44:28.008Z,14.55
2022-09-05T05:47:00.306Z,14.52
2022-09-05T05:49:52.399Z,14.64
2022-09-05T05:52:41.007Z,14.65
2022-09-05T05:55:51.557Z,14.74
2022-09-05T05:58:32.590Z,14.82
2022-09-05T06:01:44.281Z,14.86
2022-09-05T06:04:44.924Z,14.88
2022-09-05T06:07:27.230Z,14.95
2022-09-05T06:14:48.847Z,14.96
2022-09-05T06:14:54.846Z,15.19
2022-09-05T06:17:09.933Z,15.27
2022-09-05T06:22:04.256Z,15.35
2022-09-05T06:23:39.471Z,15.33
2022-09-05T06:26:32.744Z,15.57
2022-09-05T06:29:09.608Z,15.69
2022-09-05T06:31:51.849Z,15.82
2022-09-05T06:34:43.790Z,15.94
2022-09-05T06:37:16.662Z,16.03
2022-09-05T06:40:08.352Z,16.15
2022-09-05T06:42:57.208Z,16.28
2022-09-05T06:45:40.253Z,16.27
2022-09-05T06:48:17.156Z,16.52
2022-09-05T06:51:22.295Z,16.66
2022-09-05T06:54:07.210Z,16.80
2022-09-05T06:57:02.825Z,16.90
2022-09-05T07:00:10.299Z,17.06
2022-09-05T07:03:04.571Z,17.08
2022-09-05T07:05:39.577Z,17.32
2022-09-05T07:08:35.342Z,17.49
2022-09-05T07:11:15.737Z,17.65
2022-09-05T07:13:55.083Z,17.80
2022-09-05T07:16:37.675Z,17.97
2022-09-05T07:19:23.395Z,18.10
2022-09-05T07:22:06.017Z,18.26
2022-09-05T07:24:55.688Z,18.41
2022-09-05T07:27:33.953Z,18.54
2022-09-05T07:30:10.808Z,18.65
2022-09-05T07:32:43.144Z,18.80
2022-09-05T07:35:18.962Z,18.95
2022-09-05T07:37:49.062Z,19.02
2022-09-05T07:40:26.316Z,19.27
2022-09-05T07:43:09.892Z,19.44
2022-09-05T07:45:47.728Z,19.62
2022-09-05T07:48:35.332Z,19.68
2022-09-05T07:56:19.182Z,19.96
2022-09-05T07:57:04.127Z,20.11
2022-09-05T07:57:06.273Z,20.32
2022-09-05T07:59:35.527Z,20.57
2022-09-05T08:02:03.561Z,20.83
2022-09-05T08:04:33.137Z,21.05
2022-09-05T08:07:48.802Z,21.17
2022-09-05T08:10:06.298Z,21.34
2022-09-05T08:12:51.951Z,21.52
2022-09-05T08:15:39.647Z,21.71
2022-09-05T08:18:19.491Z,21.93
2022-09-05T08:20:51.810Z,22.09
2022-09-05T08:23:41.393Z,22.18
2022-09-05T08:26:12.648Z,22.43
2022-09-05T08:28:53.128Z,22.59
2022-09-05T08:31:23.792Z,22.84
2022-09-05T08:33:53.055Z,22.95
2022-09-05T08:36:30.235Z,22.90
2022-09-05T08:38:59.303Z,23.28
2022-09-05T08:41:49.270Z,23.52
2022-09-05T08:46:41.201Z,23.68
2022-09-05T08:47:17.052Z,23.91
2022-09-05T08:50:10.034Z,23.99
2022-09-05T08:52:52.052Z,24.25
2022-09-05T08:55:28.777Z,24.40
2022-09-05T08:58:04.990Z,24.48
2022-09-05T09:00:39.320Z,24.78
2022-09-05T09:03:17.023Z,24.70
2022-09-05T09:06:16.182Z,25.05
2022-09-05T09:09:01.059Z,25.21
2022-09-05T09:11:36.914Z,25.38
2022-09-05T09:14:35.440Z,25.48
2022-09-05T09:17:17.240Z,25.73
2022-09-05T09:19:50.794Z,25.86
2022-09-05T09:22:36.451Z,26.03
2022-09-05T09:25:14.897Z,26.07
2022-09-05T09:28:43.588Z,26.18
2022-09-05T09:30:57.464Z,26.37
2022-09-05T09:33:36.570Z,26.49
2022-09-05T09:36:09.315Z,26.65
2022-09-05T09:38:48.505Z,26.80
2022-09-05T09:41:42.618Z,26.94
2022-09-05T09:44:57.050Z,27.05
2022-09-05T09:47:40.193Z,27.26
2022-09-05T09:50:36.037Z,27.13
2022-09-05T09:53:20.113Z,27.38
2022-09-05T09:56:37.347Z,27.44
2022-09-05T09:59:22.428Z,27.41
2022-09-05T10:02:26.754Z,27.59
2022-09-05T10:10:39.832Z,27.72
2022-09-05T10:10:52.851Z,27.70
2022-09-05T10:15:16.930Z,28.05
2022-09-05T10:18:24.305Z,28.14
2022-09-05T10:21:35.813Z,28.29
2022-09-05T10:24:23.303Z,28.13
2022-09-05T10:27:13.404Z,28.39
2022-09-05T10:29:46.629Z,28.45
2022-09-05T10:35:04.671Z,28.66
2022-09-05T10:35:22.198Z,28.77
2022-09-05T10:37:57.666Z,28.90
2022-09-05T10:40:27.677Z,29.09
2022-09-05T10:43:00.589Z,29.21
2022-09-05T10:45:38.207Z,29.20
2022-09-05T10:48:13.593Z,29.29
2022-09-05T10:50:44.609Z,29.47
2022-09-05T10:53:39.050Z,29.56
2022-09-05T10:56:12.978Z,29.60
2022-09-05T11:02:18.661Z,29.64
2022-09-05T11:02:29.617Z,29.70
2022-09-05T11:04:49.763Z,29.66
2022-09-05T11:07:29.560Z,29.36
2022-09-05T11:10:06.933Z,29.44
2022-09-05T11:12:52.461Z,29.56
2022-09-05T11:15:29.744Z,29.58
2022-09-05T11:18:00.731Z,29.66
2022-09-05T11:20:46.061Z,29.72
2022-09-05T11:23:21.298Z,29.61
2022-09-05T11:25:56.027Z,29.40
2022-09-05T11:28:34.376Z,29.46
2022-09-05T11:31:11.449Z,29.30
2022-09-05T11:39:46.684Z,29.32
2022-09-05T11:39:50.925Z,29.14
2022-09-05T11:40:29.250Z,29.22
2022-09-05T11:43:42.000Z,29.31
2022-09-05T11:46:27.294Z,29.37
2022-09-05T11:49:21.230Z,29.58
2022-09-05T11:52:22.047Z,29.86
2022-09-05T11:55:21.966Z,29.89
2022-09-05T11:58:43.685Z,30.10
2022-09-05T12:01:43.379Z,30.38
2022-09-05T12:04:13.357Z,30.58
2022-09-05T12:10:08.871Z,30.83
2022-09-05T12:13:12.622Z,31.02
2022-09-05T12:15:42.647Z,31.12
2022-09-05T12:18:34.574Z,31.46
2022-09-05T12:25:15.182Z,31.83
2022-09-05T12:27:41.391Z,31.99
2022-09-05T12:35:44.101Z,32.01
2022-09-05T12:36:12.350Z,31.80
2022-09-05T12:40:25.495Z,31.83
2022-09-05T12:41:41.391Z,31.59
2022-09-05T12:42:09.583Z,32.10
2022-09-05T12:42:09.875Z,30.74
2022-09-05T12:42:10.031Z,31.81
2022-09-05T12:44:44.790Z,31.90
2022-09-05T12:47:18.779Z,31.83
2022-09-05T12:49:56.246Z,31.72
2022-09-05T12:52:41.696Z,31.64
2022-09-05T12:55:17.669Z,31.76
2022-09-05T13:02:27.784Z,31.59
2022-09-05T13:03:03.206Z,31.86
2022-09-05T13:03:35.109Z,31.92
2022-09-05T13:06:06.610Z,32.04
2022-09-05T13:08:42.975Z,32.13
2022-09-05T13:14:54.036Z,32.19
2022-09-05T13:14:54.321Z,32.18
2022-09-05T13:16:53.739Z,32.39
2022-09-05T13:19:31.082Z,32.50
2022-09-05T13:22:00.647Z,32.56
2022-09-05T13:24:34.274Z,32.77
2022-09-05T13:27:09.993Z,32.99
2022-09-05T13:30:11.876Z,33.18
2022-09-05T13:37:58.027Z,33.18
2022-09-05T13:38:29.332Z,33.48
2022-09-05T13:41:05.538Z,33.67
2022-09-05T13:43:53.375Z,33.90
2022-09-05T13:46:36.466Z,33.62
2022-09-05T13:49:25.718Z,33.92
2022-09-05T13:52:05.315Z,34.02
2022-09-05T13:54:41.991Z,33.87
2022-09-05T13:57:32.279Z,34.06
2022-09-05T14:00:34.978Z,34.02
2022-09-05T14:03:40.309Z,33.86
2022-09-05T14:06:45.758Z,33.92
2022-09-05T14:09:37.171Z,33.95
2022-09-05T14:12:17.316Z,34.11
2022-09-05T14:17:57.878Z,34.11
2022-09-05T14:20:30.132Z,34.36
2022-09-05T14:23:05.287Z,34.51
2022-09-05T14:25:38.907Z,34.59
2022-09-05T14:28:12.287Z,34.67
2022-09-05T14:33:19.182Z,33.93
2022-09-05T14:37:42.040Z,34.24
2022-09-05T14:37:46.828Z,34.24
2022-09-05T14:39:40.111Z,34.32
2022-09-05T14:42:30.682Z,34.41
2022-09-05T14:45:11.828Z,34.34
2022-09-05T14:48:18.287Z,34.57
2022-09-05T14:51:24.363Z,34.68
2022-09-05T14:54:01.231Z,34.75
2022-09-05T14:59:43.421Z,34.46
2022-09-05T15:02:44.080Z,34.64
2022-09-05T15:02:58.397Z,34.53
2022-09-05T15:05:11.151Z,34.25
2022-09-05T15:07:43.220Z,34.05
2022-09-05T15:12:18.427Z,33.84
2022-09-05T15:13:15.003Z,33.65
2022-09-05T15:15:43.817Z,33.48
2022-09-05T15:18:22.570Z,33.41
2022-09-05T15:20:50.791Z,33.39
2022-09-05T15:23:36.386Z,33.39
2022-09-05T15:26:05.883Z,33.52
2022-09-05T15:28:35.597Z,33.77
2022-09-05T15:31:04.617Z,33.98
2022-09-05T15:33:31.658Z,34.17
2022-09-05T15:36:00.333Z,34.49
2022-09-05T15:38:48.944Z,34.69
2022-09-05T15:41:23.199Z,35.04
2022-09-05T15:43:54.556Z,35.23
2022-09-05T15:46:30.907Z,35.43
2022-09-05T15:49:03.956Z,35.53
2022-09-05T15:51:47.216Z,35.63
2022-09-05T15:54:30.725Z,35.79
2022-09-05T15:57:17.591Z,35.82
2022-09-05T15:59:47.789Z,35.62
2022-09-05T16:02:19.498Z,35.37
2022-09-05T16:10:26.931Z,35.12
2022-09-05T16:10:48.419Z,34.65
2022-09-05T16:10:58.285Z,34.30
2022-09-05T16:13:19.439Z,33.98
2022-09-05T16:23:20.163Z,33.58
2022-09-05T16:23:29.139Z,32.88
2022-09-05T16:23:32.503Z,33.22
2022-09-05T16:24:58.048Z,32.60
2022-09-05T16:27:46.386Z,32.32
2022-09-05T16:30:22.270Z,32.13
2022-09-05T16:32:54.036Z,31.98
2022-09-05T16:35:24.908Z,31.82
2022-09-05T16:38:00.896Z,31.67
2022-09-05T16:40:31.532Z,31.44
2022-09-05T16:43:04.193Z,31.35
2022-09-05T16:45:39.840Z,31.27
2022-09-05T16:48:29.861Z,30.93
2022-09-05T16:51:11.712Z,30.77
2022-09-05T16:53:58.589Z,30.45
2022-09-05T16:56:30.307Z,30.11
2022-09-05T16:59:00.834Z,29.80
2022-09-05T17:01:46.768Z,29.61
2022-09-05T17:04:20.706Z,29.36
2022-09-05T17:06:54.479Z,29.14
2022-09-05T17:09:24.038Z,28.90
2022-09-05T17:12:01.377Z,28.77
2022-09-05T17:14:34.116Z,28.56
2022-09-05T17:17:19.632Z,28.38
2022-09-05T17:20:06.952Z,28.13
2022-09-05T17:24:59.603Z,27.92
2022-09-05T17:29:33.612Z,27.50
2022-09-05T17:29:48.907Z,27.45
2022-09-05T17:31:53.505Z,27.29
2022-09-05T17:34:50.228Z,27.04
2022-09-05T17:37:36.861Z,26.94
2022-09-05T17:40:38.097Z,26.79
2022-09-05T17:43:06.070Z,26.60
2022-09-05T17:45:44.292Z,26.46
2022-09-05T17:48:15.298Z,26.19
2022-09-05T17:50:47.435Z,26.18
2022-09-05T17:53:26.487Z,26.00
2022-09-05T17:56:12.421Z,25.80
2022-09-05T17:58:59.316Z,25.57
2022-09-05T18:01:26.781Z,25.39
2022-09-05T18:04:17.298Z,25.31
2022-09-05T18:06:54.037Z,25.18
2022-09-05T18:09:51.108Z,25.08
2022-09-05T18:13:12.630Z,24.95
2022-09-05T18:15:17.384Z,24.85
2022-09-05T18:18:01.280Z,24.74
2022-09-05T18:20:40.763Z,24.64
2022-09-05T18:23:37.327Z,24.52
2022-09-05T18:26:02.786Z,24.40
2022-09-05T18:28:34.466Z,24.17
2022-09-05T18:31:41.803Z,24.15
2022-09-05T18:34:40.217Z,23.97
2022-09-05T18:37:56.156Z,23.75
2022-09-05T18:40:37.676Z,23.55
2022-09-05T18:43:13.546Z,23.42
2022-09-05T18:45:52.548Z,23.27
2022-09-05T18:48:30.030Z,23.16
2022-09-05T18:51:13.326Z,23.04
2022-09-05T18:53:47.219Z,22.96
2022-09-05T18:56:22.453Z,22.89
2022-09-05T18:59:10.067Z,22.79
2022-09-05T19:01:41.993Z,22.68
2022-09-05T19:04:40.458Z,22.49
2022-09-05T19:07:08.159Z,22.38
2022-09-05T19:09:37.359Z,22.24
2022-09-05T19:12:34.878Z,22.16
2022-09-05T19:14:58.569Z,22.10
2022-09-05T19:17:34.061Z,22.01
2022-09-05T19:20:31.590Z,21.86
2022-09-05T19:23:09.940Z,21.71
2022-09-05T19:25:41.297Z,21.45
2022-09-05T19:36:44.336Z,20.92
2022-09-05T19:36:46.651Z,21.46
2022-09-05T19:36:57.984Z,21.32
2022-09-05T19:37:24.033Z,21.39
2022-09-05T19:42:36.439Z,21.14
2022-09-05T19:47:26.753Z,20.98
2022-09-05T19:47:37.701Z,20.86
2022-09-05T19:48:07.711Z,20.76
2022-09-05T19:50:34.853Z,20.73
2022-09-05T19:53:04.436Z,20.68
2022-09-05T19:55:35.178Z,20.49
2022-09-05T19:58:19.343Z,20.67
2022-09-05T20:01:06.539Z,20.66
2022-09-05T20:03:41.161Z,20.64
2022-09-05T20:06:28.770Z,20.48
2022-09-05T20:09:13.540Z,20.27
2022-09-05T20:11:46.207Z,20.37
2022-09-05T20:14:18.822Z,20.04
2022-09-05T20:16:46.602Z,20.21
2022-09-05T20:19:28.635Z,20.14
2022-09-05T20:21:58.828Z,20.02
2022-09-05T20:24:25.562Z,20.02
2022-09-05T20:26:52.171Z,19.90
2022-09-05T20:29:43.465Z,19.85
2022-09-05T20:32:18.474Z,19.78
2022-09-05T20:39:47.529Z,19.66
2022-09-05T20:43:23.237Z,19.48
2022-09-05T20:43:26.645Z,19.51
2022-09-05T20:43:51.028Z,19.38
2022-09-05T20:54:06.347Z,19.32
2022-09-05T20:54:10.094Z,19.19
2022-09-05T20:54:25.800Z,19.04
2022-09-05T20:55:39.687Z,18.98
2022-09-05T20:58:10.605Z,18.91
2022-09-05T21:00:40.942Z,18.88
2022-09-05T21:03:25.479Z,18.81
2022-09-05T21:05:52.224Z,18.78
2022-09-05T21:08:33.336Z,18.73
2022-09-05T21:11:01.994Z,18.67
2022-09-05T21:13:30.623Z,18.58
2022-09-05T21:15:58.592Z,18.52
2022-09-05T21:18:33.551Z,18.48
2022-09-05T21:21:13.213Z,18.40
2022-09-05T21:24:16.681Z,18.35
2022-09-05T21:26:47.133Z,18.08
2022-09-05T21:29:16.138Z,18.19
2022-09-05T21:31:45.213Z,18.00
2022-09-05T21:34:18.251Z,18.09
2022-09-05T21:36:45.446Z,18.01
2022-09-05T21:39:19.000Z,17.93
2022-09-05T21:41:50.233Z,17.90
2022-09-05T21:47:39.314Z,17.77
2022-09-05T21:47:41.847Z,17.85
2022-09-05T21:49:59.568Z,17.81
2022-09-05T21:52:27.588Z,17.57
2022-09-05T21:59:15.062Z,17.67
2022-09-05T21:59:25.344Z,17.60
2022-09-05T22:00:34.115Z,17.54
2022-09-05T22:03:00.764Z,17.50
2022-09-05T22:05:31.478Z,17.45
2022-09-05T22:07:58.044Z,17.33
2022-09-05T22:10:51.389Z,17.37
2022-09-05T22:13:12.726Z,17.31
2022-09-05T22:15:39.376Z,17.27
2022-09-05T22:18:17.385Z,17.23
2022-09-05T22:20:53.435Z,17.17
2022-09-05T22:23:37.449Z,17.10
2022-09-05T22:26:06.227Z,17.06
2022-09-05T22:28:34.951Z,17.04
2022-09-05T22:31:01.616Z,16.63
2022-09-05T22:33:34.653Z,16.92
2022-09-05T22:36:01.506Z,16.77
2022-09-05T22:38:28.080Z,16.85
2022-09-05T22:40:56.147Z,16.85
2022-09-05T22:43:25.393Z,16.85
2022-09-05T22:45:55.126Z,16.76
2022-09-05T22:48:22.158Z,16.74
2022-09-05T22:50:48.911Z,16.82
2022-09-05T22:53:15.555Z,16.79
2022-09-05T22:55:43.668Z,16.77
2022-09-05T22:58:12.191Z,16.77
2022-09-05T23:00:40.575Z,16.80
2022-09-05T23:03:07.627Z,16.70
2022-09-05T23:05:34.164Z,16.80
2022-09-05T23:08:02.286Z,16.81
2022-09-05T23:10:30.216Z,16.81
2022-09-05T23:12:57.711Z,16.78
2022-09-05T23:15:24.336Z,16.81
2022-09-05T23:17:56.358Z,16.78
2022-09-05T23:20:24.301Z,16.80
2022-09-05T23:22:50.872Z,16.81
2022-09-05T23:25:17.916Z,16.81
2022-09-05T23:27:45.184Z,16.81
2022-09-05T23:30:12.372Z,16.84
2022-09-05T23:32:44.202Z,16.77
2022-09-05T23:35:12.309Z,16.84
2022-09-05T23:37:41.518Z,16.72
2022-09-05T23:40:09.391Z,16.82
2022-09-05T23:42:35.937Z,16.79
2022-09-05T23:45:02.584Z,16.86
2022-09-05T23:47:29.873Z,16.91
2022-09-05T23:49:56.526Z,16.89
2022-09-05T23:52:24.384Z,16.86
2022-09-05T23:54:50.980Z,16.87
2022-09-05T23:57:21.160Z,16.87
2022-09-05T23:59:47.750Z,16.86
